Time,TemperatureF,DewpointF,PressureIn,WindDirection,WindDirectionDegrees,WindSpeedMPH,WindSpeedGustMPH,Humidity,HourlyPrecipIn,Conditions,Clouds,dailyrainin,SoftwareType,DateUTC
2013-01-13 00:00:00,45.7,35.7,29.78,North,0,10.4,10.4,68,0.00,,,0.00,WeatherDisplay:10.37,2013-01-13 05:00:00,
2013-01-13 00:01:00,45.7,35.7,29.78,North,0,10.4,10.4,68,0.00,,,0.00,WeatherDisplay:10.37,2013-01-13 05:01:00,
2013-01-13 00:03:00,45.7,35.7,29.78,North,0,10.4,10.4,68,0.00,,,0.00,WeatherDisplay:10.37,2013-01-13 05:03:00,
2013-01-13 00:08:00,45.7,35.7,29.78,North,0,10.4,10.4,68,0.00,RA,,0.00,WeatherDisplay:10.37,2013-01-13 05:08:00,
2013-01-13 00:13:00,43.7,36.3,29.77,NNW,338,8.1,8.1,75,0.02,RA,,0.02,WeatherDisplay:10.37,2013-01-13 05:13:00,
2013-01-13 00:18:00,43.0,35.9,29.77,North,0,5.8,5.8,76,0.04,RA,,0.04,WeatherDisplay:10.37,2013-01-13 05:18:00,
2013-01-13 00:23:00,42.4,36.1,29.77,NW,315,8.1,8.1,78,0.05,RA,,0.05,WeatherDisplay:10.37,2013-01-13 05:23:00,
2013-01-13 00:28:00,41.9,36.2,29.77,North,0,5.8,5.8,80,0.06,RA,,0.06,WeatherDisplay:10.37,2013-01-13 05:28:00,
2013-01-13 00:33:00,41.7,36.9,29.77,NE,45,6.9,6.9,83,0.07,RA,,0.08,WeatherDisplay:10.37,2013-01-13 05:33:00,
2013-01-13 00:38:00,41.5,37.1,29.76,North,0,9.2,9.2,84,0.08,RA,,0.08,WeatherDisplay:10.37,2013-01-13 05:38:00,
2013-01-13 00:43:00,41.4,37.2,29.76,North,0,10.4,10.4,85,0.09,RA,,0.09,WeatherDisplay:10.37,2013-01-13 05:43:00,
2013-01-13 00:48:00,41.2,37.3,29.76,NNW,338,12.7,12.7,86,0.09,RA,,0.11,WeatherDisplay:10.37,2013-01-13 05:48:00,
2013-01-13 00:53:00,41.0,37.4,29.75,NE,45,15.0,15.0,87,0.11,RA,,0.11,WeatherDisplay:10.37,2013-01-13 05:53:00,
2013-01-13 00:58:00,40.6,37.7,29.73,North,0,12.7,12.7,89,0.11,RA,,0.12,WeatherDisplay:10.37,2013-01-13 05:58:00,
2013-01-13 01:03:00,40.6,37.7,29.73,North,0,12.7,12.7,89,0.13,RA,,0.13,WeatherDisplay:10.37,2013-01-13 06:03:00,
2013-01-13 01:08:00,39.9,37.2,29.72,North,0,13.8,13.8,90,0.13,RA,,0.14,WeatherDisplay:10.37,2013-01-13 06:08:00,
2013-01-13 01:13:00,39.6,36.9,29.72,North,0,15.0,15.0,90,0.12,RA,,0.14,WeatherDisplay:10.37,2013-01-13 06:13:00,
2013-01-13 01:18:00,39.4,37.0,29.72,North,0,16.1,16.1,91,0.12,RA,,0.15,WeatherDisplay:10.37,2013-01-13 06:18:00,
2013-01-13 01:23:00,39.2,36.8,29.71,North,0,12.7,12.7,91,0.11,RA,,0.15,WeatherDisplay:10.37,2013-01-13 06:23:00,
2013-01-13 01:28:00,39.0,36.9,29.71,NE,45,12.7,12.7,92,0.09,CLR,,0.15,WeatherDisplay:10.37,2013-01-13 06:28:00,
2013-01-13 01:33:00,39.0,37.2,29.71,North,0,13.8,13.8,93,0.09,RA,,0.17,WeatherDisplay:10.37,2013-01-13 06:33:00,
2013-01-13 01:38:00,39.0,37.2,29.71,North,0,11.5,11.5,93,0.08,RA,,0.17,WeatherDisplay:10.37,2013-01-13 06:38:00,
2013-01-13 01:43:00,39.0,37.4,29.71,North,0,10.4,10.4,94,0.07,CLR,,0.17,WeatherDisplay:10.37,2013-01-13 06:43:00,
2013-01-13 01:48:00,39.0,37.4,29.72,North,0,9.2,9.2,94,0.06,CLR,,0.17,WeatherDisplay:10.37,2013-01-13 06:48:00,
2013-01-13 01:53:00,39.0,37.7,29.72,NE,45,8.1,8.1,95,0.07,RA,,0.18,WeatherDisplay:10.37,2013-01-13 06:53:00,
2013-01-13 01:58:00,39.0,37.7,29.72,North,0,11.5,11.5,95,0.06,RA,,0.18,WeatherDisplay:10.37,2013-01-13 06:58:00,
2013-01-13 02:03:00,39.0,37.7,29.72,North,0,8.1,8.1,95,0.05,CLR,,0.18,WeatherDisplay:10.37,2013-01-13 07:03:00,
2013-01-13 02:08:00,39.0,38.0,29.72,North,0,9.8,9.8,96,0.05,RA,,0.19,WeatherDisplay:10.37,2013-01-13 07:08:00,
2013-01-13 02:13:00,39.0,38.2,29.72,North,0,13.8,13.8,97,0.05,RA,,0.19,WeatherDisplay:10.37,2013-01-13 07:13:00,
2013-01-13 02:18:00,39.0,38.2,29.71,NNE,22,12.1,12.1,97,0.04,,,0.20,WeatherDisplay:10.37,2013-01-13 07:18:00,
2013-01-13 02:23:00,39.0,38.2,29.71,NE,45,15.0,15.0,97,0.05,RA,,0.20,WeatherDisplay:10.37,2013-01-13 07:23:00,
2013-01-13 02:28:00,39.0,38.5,29.71,NE,45,11.5,11.5,98,0.05,RA,,0.21,WeatherDisplay:10.37,2013-01-13 07:28:00,
2013-01-13 02:33:00,39.0,38.5,29.70,NNW,338,13.8,13.8,98,0.05,RA,,0.21,WeatherDisplay:10.37,2013-01-13 07:33:00,
2013-01-13 02:38:00,38.8,38.3,29.72,North,0,15.0,15.0,98,0.06,RA,,0.22,WeatherDisplay:10.37,2013-01-13 07:38:00,
2013-01-13 02:43:00,38.8,38.1,29.72,North,0,12.7,12.7,97,0.07,RA,,0.24,WeatherDisplay:10.37,2013-01-13 07:43:00,
2013-01-13 02:48:00,38.7,37.9,29.72,North,0,8.1,8.1,97,0.07,RA,,0.24,WeatherDisplay:10.37,2013-01-13 07:48:00,
2013-01-13 02:53:00,38.5,37.7,29.73,North,0,10.4,10.4,97,0.07,RA,,0.25,WeatherDisplay:10.37,2013-01-13 07:53:00,
2013-01-13 02:58:00,38.5,37.7,29.73,North,0,8.1,8.1,97,0.08,RA,,0.26,WeatherDisplay:10.37,2013-01-13 07:58:00,
2013-01-13 03:03:00,38.5,38.0,29.72,North,0,8.1,8.1,98,0.08,RA,,0.26,WeatherDisplay:10.37,2013-01-13 08:03:00,
2013-01-13 03:08:00,38.5,38.0,29.72,North,0,12.7,12.7,98,0.08,RA,,0.27,WeatherDisplay:10.37,2013-01-13 08:08:00,
2013-01-13 03:13:00,38.5,38.2,29.72,North,0,10.4,10.4,99,0.08,RA,,0.27,WeatherDisplay:10.37,2013-01-13 08:13:00,
2013-01-13 03:18:00,38.5,38.2,29.72,North,0,12.7,12.7,99,0.09,RA,,0.28,WeatherDisplay:10.37,2013-01-13 08:18:00,
2013-01-13 03:23:00,38.5,38.2,29.71,North,0,12.7,12.7,99,0.08,RA,,0.28,WeatherDisplay:10.37,2013-01-13 08:23:00,
2013-01-13 03:28:00,38.5,38.2,29.71,NE,45,12.7,12.7,99,0.08,CLR,,0.28,WeatherDisplay:10.37,2013-01-13 08:28:00,
2013-01-13 03:33:00,38.3,38.0,29.70,North,0,11.5,11.5,99,0.08,RA,,0.30,WeatherDisplay:10.37,2013-01-13 08:33:00,
2013-01-13 03:38:00,38.3,38.0,29.71,NE,45,9.2,9.2,99,0.07,RA,,0.30,WeatherDisplay:10.37,2013-01-13 08:38:00,
2013-01-13 03:43:00,38.1,37.9,29.71,North,0,12.7,12.7,99,0.06,CLR,,0.30,WeatherDisplay:10.37,2013-01-13 08:43:00,
2013-01-13 03:48:00,38.1,37.9,29.70,North,0,10.4,10.4,99,0.06,CLR,,0.30,WeatherDisplay:10.37,2013-01-13 08:48:00,
2013-01-13 03:53:00,37.9,37.7,29.71,North,0,11.5,11.5,99,0.05,CLR,,0.30,WeatherDisplay:10.37,2013-01-13 08:53:00,
2013-01-13 03:58:00,37.9,37.7,29.71,North,0,10.4,10.4,99,0.05,RA,,0.31,WeatherDisplay:10.37,2013-01-13 08:58:00,
2013-01-13 04:03:00,37.9,37.7,29.70,NE,45,9.2,9.2,99,0.05,RA,,0.31,WeatherDisplay:10.37,2013-01-13 09:03:00,
2013-01-13 04:08:00,37.8,37.5,29.70,North,0,10.7,10.7,99,0.05,RA,,0.32,WeatherDisplay:10.37,2013-01-13 09:08:00,
2013-01-13 04:13:00,37.6,37.3,29.70,NE,45,12.7,12.7,99,0.06,RA,,0.33,WeatherDisplay:10.37,2013-01-13 09:13:00,
2013-01-13 04:18:00,37.6,37.3,29.70,NE,45,11.5,11.5,99,0.06,RA,,0.34,WeatherDisplay:10.37,2013-01-13 09:18:00,
2013-01-13 04:23:00,37.4,37.1,29.70,North,0,12.7,12.7,99,0.06,RA,,0.34,WeatherDisplay:10.37,2013-01-13 09:23:00,
2013-01-13 04:28:00,37.4,37.1,29.70,NE,45,12.7,12.7,99,0.07,RA,,0.35,WeatherDisplay:10.37,2013-01-13 09:28:00,
2013-01-13 04:33:00,37.4,37.1,29.71,North,0,10.4,10.4,99,0.07,RA,,0.37,WeatherDisplay:10.37,2013-01-13 09:33:00,
2013-01-13 04:38:00,37.2,37.0,29.70,North,0,10.4,10.4,99,0.08,RA,,0.38,WeatherDisplay:10.37,2013-01-13 09:38:00,
2013-01-13 04:43:00,37.2,37.0,29.70,North,0,13.8,13.8,99,0.09,RA,,0.39,WeatherDisplay:10.37,2013-01-13 09:43:00,
2013-01-13 04:48:00,37.2,37.0,29.70,North,0,12.7,12.7,99,0.11,RA,,0.40,WeatherDisplay:10.37,2013-01-13 09:48:00,
2013-01-13 04:53:00,37.2,37.0,29.71,North,0,10.4,10.4,99,0.11,RA,,0.40,WeatherDisplay:10.37,2013-01-13 09:53:00,
2013-01-13 04:58:00,37.2,37.0,29.70,North,0,15.0,15.0,99,0.09,,,0.41,WeatherDisplay:10.37,2013-01-13 09:58:00,
2013-01-13 05:03:00,37.2,37.0,29.68,North,0,11.5,11.5,99,0.11,RA,,0.41,WeatherDisplay:10.37,2013-01-13 10:03:00,
2013-01-13 05:08:00,37.2,37.0,29.69,North,0,11.5,11.5,99,0.09,RA,,0.41,WeatherDisplay:10.37,2013-01-13 10:08:00,
2013-01-13 05:13:00,37.0,36.8,29.69,North,0,12.7,12.7,99,0.08,CLR,,0.41,WeatherDisplay:10.37,2013-01-13 10:13:00,
2013-01-13 05:18:00,37.4,37.1,29.69,North,0,15.2,15.2,99,0.07,CLR,,0.41,WeatherDisplay:10.37,2013-01-13 10:18:00,
2013-01-13 05:23:00,37.2,37.0,29.69,North,0,16.1,16.1,99,0.07,CLR,,0.41,WeatherDisplay:10.37,2013-01-13 10:23:00,
2013-01-13 05:28:00,37.2,37.0,29.71,NW,315,8.1,8.1,99,0.06,CLR,,0.41,WeatherDisplay:10.37,2013-01-13 10:28:00,
2013-01-13 05:33:00,37.2,37.0,29.72,NW,315,13.8,13.8,99,0.05,CLR,,0.41,WeatherDisplay:10.37,2013-01-13 10:33:00,
2013-01-13 05:38:00,37.0,36.8,29.72,NW,315,10.4,10.4,99,0.04,CLR,,0.41,WeatherDisplay:10.37,2013-01-13 10:38:00,
2013-01-13 05:44:00,37.0,36.8,29.72,NNW,338,15.0,15.0,99,0.02,CLR,,0.41,WeatherDisplay:10.37,2013-01-13 10:44:00,
2013-01-13 05:49:00,37.0,36.8,29.71,North,0,13.8,13.8,99,0.01,CLR,,0.41,WeatherDisplay:10.37,2013-01-13 10:49:00,
2013-01-13 05:54:00,37.0,36.8,29.71,North,0,12.7,12.7,99,0.01,CLR,,0.41,WeatherDisplay:10.37,2013-01-13 10:54:00,
2013-01-13 05:59:00,37.0,36.8,29.69,NE,45,12.7,12.7,99,0.01,CLR,,0.43,WeatherDisplay:10.37,2013-01-13 10:59:00,
2013-01-13 06:04:00,37.0,36.8,29.70,NW,315,12.7,12.7,99,0.01,RA,,0.43,WeatherDisplay:10.37,2013-01-13 11:04:00,
2013-01-13 06:09:00,37.0,36.8,29.69,North,0,12.7,12.7,99,0.01,RA,,0.43,WeatherDisplay:10.37,2013-01-13 11:09:00,
2013-01-13 06:14:00,37.0,36.8,29.69,North,0,11.5,11.5,99,0.01,CLR,,0.43,WeatherDisplay:10.37,2013-01-13 11:14:00,
2013-01-13 06:19:00,36.9,36.6,29.68,NE,45,15.0,15.0,99,0.01,CLR,,0.43,WeatherDisplay:10.37,2013-01-13 11:19:00,
2013-01-13 06:24:00,36.9,36.6,29.69,North,0,15.0,15.0,99,0.01,CLR,,0.43,WeatherDisplay:10.37,2013-01-13 11:24:00,
2013-01-13 06:29:00,36.9,36.6,29.69,NE,45,10.7,10.7,99,0.01,CLR,,0.43,WeatherDisplay:10.37,2013-01-13 11:29:00,
2013-01-13 06:34:00,36.9,36.6,29.69,North,0,12.7,12.7,99,0.01,CLR,,0.43,WeatherDisplay:10.37,2013-01-13 11:34:00,
2013-01-13 06:39:00,36.9,36.6,29.68,North,0,10.4,10.4,99,0.01,CLR,,0.43,WeatherDisplay:10.37,2013-01-13 11:39:00,
2013-01-13 06:44:00,36.9,36.6,29.69,North,0,15.0,15.0,99,0.01,CLR,,0.43,WeatherDisplay:10.37,2013-01-13 11:44:00,
2013-01-13 06:49:00,36.9,36.6,29.69,NE,45,8.1,8.1,99,0.01,CLR,,0.43,WeatherDisplay:10.37,2013-01-13 11:49:00,
2013-01-13 06:54:00,36.9,36.6,29.69,NE,45,12.7,12.7,99,0.01,CLR,,0.43,WeatherDisplay:10.37,2013-01-13 11:54:00,
2013-01-13 06:59:00,36.9,36.6,29.72,NE,45,8.1,8.1,99,0.01,CLR,,0.43,WeatherDisplay:10.37,2013-01-13 11:59:00,
2013-01-13 07:04:00,37.0,36.8,29.73,North,0,8.1,8.1,99,0.00,CLR,,0.43,WeatherDisplay:10.37,2013-01-13 12:04:00,
2013-01-13 07:09:00,36.9,36.6,29.72,NE,45,9.2,9.2,99,0.00,CLR,,0.43,WeatherDisplay:10.37,2013-01-13 12:09:00,
2013-01-13 07:14:00,37.0,36.8,29.72,North,0,9.2,9.2,99,0.00,CLR,,0.43,WeatherDisplay:10.37,2013-01-13 12:14:00,
2013-01-13 07:19:00,37.0,36.8,29.70,NNE,22,6.9,6.9,99,0.00,CLR,,0.43,WeatherDisplay:10.37,2013-01-13 12:19:00,
2013-01-13 07:24:00,37.0,36.8,29.71,North,0,9.2,9.2,99,0.00,CLR,,0.43,WeatherDisplay:10.37,2013-01-13 12:24:00,
2013-01-13 07:29:00,37.0,36.8,29.72,North,0,10.4,10.4,99,0.00,CLR,,0.43,WeatherDisplay:10.37,2013-01-13 12:29:00,
2013-01-13 07:34:00,37.0,36.8,29.71,North,0,5.8,5.8,99,0.00,CLR,,0.43,WeatherDisplay:10.37,2013-01-13 12:34:00,
2013-01-13 07:39:00,37.0,36.8,29.71,North,0,9.2,9.2,99,0.00,CLR,,0.43,WeatherDisplay:10.37,2013-01-13 12:39:00,
2013-01-13 07:44:00,37.0,36.8,29.70,NE,45,8.1,8.1,99,0.00,CLR,,0.43,WeatherDisplay:10.37,2013-01-13 12:44:00,
2013-01-13 07:49:00,37.0,36.8,29.72,North,0,2.3,2.3,99,0.00,CLR,,0.43,WeatherDisplay:10.37,2013-01-13 12:49:00,
2013-01-13 07:54:00,37.0,36.8,29.72,NW,315,4.6,4.6,99,0.00,CLR,,0.43,WeatherDisplay:10.37,2013-01-13 12:54:00,
2013-01-13 07:59:00,37.0,36.8,29.72,NE,45,4.6,4.6,99,0.00,CLR,,0.43,WeatherDisplay:10.37,2013-01-13 12:59:00,
2013-01-13 08:04:00,37.0,36.8,29.71,North,0,4.6,4.6,99,0.00,CLR,,0.43,WeatherDisplay:10.37,2013-01-13 13:04:00,
2013-01-13 08:09:00,37.2,37.0,29.72,North,0,4.6,4.6,99,0.00,CLR,,0.43,WeatherDisplay:10.37,2013-01-13 13:09:00,
2013-01-13 08:14:00,37.2,37.0,29.72,North,0,5.8,5.8,99,0.00,CLR,,0.43,WeatherDisplay:10.37,2013-01-13 13:14:00,
2013-01-13 08:19:00,37.2,37.0,29.73,East,90,2.3,0.0,99,0.00,CLR,,0.43,WeatherDisplay:10.37,2013-01-13 13:19:00,
2013-01-13 08:24:00,37.4,37.1,29.73,SE,135,1.2,0.0,99,0.00,CLR,,0.43,WeatherDisplay:10.37,2013-01-13 13:24:00,
2013-01-13 08:29:00,37.4,37.1,29.73,NE,45,1.2,0.0,99,0.00,CLR,,0.43,WeatherDisplay:10.37,2013-01-13 13:29:00,
2013-01-13 08:34:00,37.4,37.1,29.73,North,0,1.2,1.2,99,0.00,CLR,,0.43,WeatherDisplay:10.37,2013-01-13 13:34:00,
2013-01-13 08:39:00,37.4,37.1,29.73,NE,45,1.2,1.2,99,0.00,CLR,,0.43,WeatherDisplay:10.37,2013-01-13 13:39:00,
2013-01-13 08:44:00,37.4,37.1,29.73,NE,45,2.3,0.0,99,0.00,CLR,,0.43,WeatherDisplay:10.37,2013-01-13 13:44:00,
2013-01-13 08:49:00,37.6,37.3,29.73,NE,45,2.3,2.3,99,0.00,CLR,,0.43,WeatherDisplay:10.37,2013-01-13 13:49:00,
2013-01-13 08:54:00,37.6,37.3,29.73,NE,45,2.3,2.3,99,0.00,CLR,,0.43,WeatherDisplay:10.37,2013-01-13 13:54:00,
2013-01-13 08:59:00,37.6,37.3,29.74,North,0,2.3,0.0,99,0.00,CLR,,0.43,WeatherDisplay:10.37,2013-01-13 13:59:00,
2013-01-13 09:04:00,37.6,37.3,29.74,North,0,0.0,0.0,99,0.00,CLR,,0.43,WeatherDisplay:10.37,2013-01-13 14:04:00,
2013-01-13 09:09:00,37.8,37.5,29.75,North,0,0.0,0.0,99,0.00,CLR,,0.43,WeatherDisplay:10.37,2013-01-13 14:09:00,
2013-01-13 09:14:00,37.8,37.5,29.75,North,0,0.0,0.0,99,0.00,CLR,,0.43,WeatherDisplay:10.37,2013-01-13 14:14:00,
2013-01-13 09:19:00,37.9,37.7,29.75,SW,225,0.0,0.0,99,0.00,CLR,,0.43,WeatherDisplay:10.37,2013-01-13 14:19:00,
2013-01-13 09:24:00,37.9,37.7,29.75,SW,225,1.2,0.0,99,0.00,CLR,,0.43,WeatherDisplay:10.37,2013-01-13 14:24:00,
2013-01-13 09:29:00,38.1,37.9,29.74,North,0,1.2,0.0,99,0.00,CLR,,0.43,WeatherDisplay:10.37,2013-01-13 14:29:00,
2013-01-13 09:34:00,38.1,37.9,29.75,NW,315,1.2,0.0,99,0.00,CLR,,0.43,WeatherDisplay:10.37,2013-01-13 14:34:00,
2013-01-13 09:39:00,37.9,37.7,29.74,NW,315,3.5,3.5,99,0.00,CLR,,0.43,WeatherDisplay:10.37,2013-01-13 14:39:00,
2013-01-13 09:44:00,38.1,37.8,29.74,WNW,303,0.0,3.0,99,0.00,CLR,,0.43,WeatherDisplay:10.37,2013-01-13 14:44:00,
2013-01-13 09:49:00,38.3,38.0,29.75,SW,225,4.5,4.5,99,0.00,CLR,,0.43,WeatherDisplay:10.37,2013-01-13 14:49:00,
2013-01-13 09:54:00,38.5,38.2,29.76,SSW,202,4.6,4.6,99,0.00,CLR,,0.43,WeatherDisplay:10.37,2013-01-13 14:54:00,
2013-01-13 09:59:00,38.7,38.4,29.75,West,270,3.5,3.5,99,0.00,CLR,,0.43,WeatherDisplay:10.37,2013-01-13 14:59:00,
2013-01-13 10:04:00,38.5,38.2,29.75,West,270,3.5,3.5,99,0.00,CLR,,0.43,WeatherDisplay:10.37,2013-01-13 15:04:00,
2013-01-13 10:09:00,38.7,38.4,29.76,SW,225,3.5,3.5,99,0.00,CLR,,0.43,WeatherDisplay:10.37,2013-01-13 15:09:00,
2013-01-13 10:14:00,38.7,38.4,29.76,West,270,5.8,5.8,99,0.00,CLR,,0.43,WeatherDisplay:10.37,2013-01-13 15:14:00,
2013-01-13 10:19:00,38.7,38.4,29.77,NW,315,4.6,4.6,99,0.00,CLR,,0.43,WeatherDisplay:10.37,2013-01-13 15:19:00,
2013-01-13 10:24:00,38.7,38.4,29.77,SE,135,5.8,5.8,99,0.00,CLR,,0.43,WeatherDisplay:10.37,2013-01-13 15:24:00,
2013-01-13 10:29:00,38.8,38.6,29.77,South,180,4.6,4.6,99,0.00,CLR,,0.43,WeatherDisplay:10.37,2013-01-13 15:29:00,
2013-01-13 10:34:00,38.8,38.6,29.78,SE,135,9.2,9.2,99,0.00,CLR,,0.43,WeatherDisplay:10.37,2013-01-13 15:34:00,
2013-01-13 10:39:00,39.0,38.8,29.78,NW,315,7.6,7.6,99,0.00,CLR,,0.43,WeatherDisplay:10.37,2013-01-13 15:39:00,
2013-01-13 10:44:00,39.0,38.8,29.78,NW,315,5.8,5.8,99,0.00,CLR,,0.43,WeatherDisplay:10.37,2013-01-13 15:44:00,
2013-01-13 10:49:00,39.0,38.8,29.78,SW,225,4.6,4.6,99,0.01,RA,,0.44,WeatherDisplay:10.37,2013-01-13 15:49:00,
2013-01-13 10:54:00,39.2,38.9,29.79,South,180,5.8,5.8,99,0.01,RA,,0.44,WeatherDisplay:10.37,2013-01-13 15:54:00,
2013-01-13 10:59:00,39.0,38.8,29.78,SW,225,5.8,5.8,99,0.01,,,0.44,WeatherDisplay:10.37,2013-01-13 15:59:00,
2013-01-13 11:04:00,39.0,38.8,29.79,SW,225,4.6,4.6,99,0.01,CLR,,0.44,WeatherDisplay:10.37,2013-01-13 16:04:00,
2013-01-13 11:10:00,39.0,38.8,29.78,SE,135,4.6,4.6,99,0.01,CLR,,0.44,WeatherDisplay:10.37,2013-01-13 16:10:00,
2013-01-13 11:15:00,39.0,38.8,29.78,NW,315,5.8,5.8,99,0.01,CLR,,0.44,WeatherDisplay:10.37,2013-01-13 16:15:00,
2013-01-13 11:20:00,38.8,38.6,29.78,SE,135,4.6,4.6,99,0.01,CLR,,0.44,WeatherDisplay:10.37,2013-01-13 16:20:00,
2013-01-13 11:25:00,38.8,38.6,29.78,North,0,4.6,4.6,99,0.01,CLR,,0.44,WeatherDisplay:10.37,2013-01-13 16:25:00,
2013-01-13 11:30:00,38.8,38.6,29.78,SW,225,5.8,5.8,99,0.01,CLR,,0.44,WeatherDisplay:10.37,2013-01-13 16:30:00,
2013-01-13 11:35:00,38.8,38.6,29.78,SSW,202,3.5,3.5,99,0.01,CLR,,0.44,WeatherDisplay:10.37,2013-01-13 16:35:00,
2013-01-13 11:40:00,38.8,38.6,29.77,NNE,22,3.5,3.5,99,0.01,CLR,,0.44,WeatherDisplay:10.37,2013-01-13 16:40:00,
2013-01-13 11:45:00,38.7,38.4,29.77,WSW,248,3.5,3.5,99,0.01,CLR,,0.44,WeatherDisplay:10.37,2013-01-13 16:45:00,
2013-01-13 11:50:00,38.5,38.2,29.76,NW,315,4.6,4.6,99,0.00,CLR,,0.44,WeatherDisplay:10.37,2013-01-13 16:50:00,
2013-01-13 11:55:00,38.7,38.4,29.77,NW,315,3.5,3.5,99,0.00,CLR,,0.44,WeatherDisplay:10.37,2013-01-13 16:55:00,
2013-01-13 12:00:00,39.0,38.8,29.79,SW,225,9.2,9.2,99,0.00,CLR,,0.44,WeatherDisplay:10.37,2013-01-13 17:00:00,
2013-01-13 12:05:00,39.0,38.8,29.78,SW,225,5.8,5.8,99,0.00,CLR,,0.44,WeatherDisplay:10.37,2013-01-13 17:05:00,
2013-01-13 12:10:00,38.7,38.4,29.78,South,180,5.8,5.8,99,0.00,CLR,,0.44,WeatherDisplay:10.37,2013-01-13 17:10:00,
2013-01-13 12:15:00,38.7,38.4,29.77,North,0,4.6,4.6,99,0.00,CLR,,0.44,WeatherDisplay:10.37,2013-01-13 17:15:00,
2013-01-13 12:20:00,38.3,38.0,29.76,ESE,112,4.6,0.0,99,0.00,CLR,,0.44,WeatherDisplay:10.37,2013-01-13 17:20:00,
2013-01-13 12:25:00,38.1,37.9,29.73,NE,45,4.6,4.6,99,0.00,CLR,,0.44,WeatherDisplay:10.37,2013-01-13 17:25:00,
2013-01-13 12:30:00,37.9,37.7,29.71,North,0,13.8,13.8,99,0.00,CLR,,0.44,WeatherDisplay:10.37,2013-01-13 17:30:00,
2013-01-13 12:35:00,37.9,37.7,29.71,North,0,5.8,5.8,99,0.00,CLR,,0.44,WeatherDisplay:10.37,2013-01-13 17:35:00,
2013-01-13 12:40:00,37.9,37.7,29.73,West,270,4.6,0.0,99,0.00,CLR,,0.44,WeatherDisplay:10.37,2013-01-13 17:40:00,
2013-01-13 12:45:00,38.1,37.9,29.78,SW,225,6.9,6.9,99,0.00,CLR,,0.44,WeatherDisplay:10.37,2013-01-13 17:45:00,
2013-01-13 12:50:00,38.5,38.2,29.78,North,0,9.2,9.2,99,0.00,CLR,,0.44,WeatherDisplay:10.37,2013-01-13 17:50:00,
2013-01-13 12:55:00,38.5,38.2,29.79,North,0,8.1,8.1,99,0.00,CLR,,0.44,WeatherDisplay:10.37,2013-01-13 17:55:00,
2013-01-13 13:00:00,38.5,38.2,29.79,SW,225,10.4,10.4,99,0.00,CLR,,0.44,WeatherDisplay:10.37,2013-01-13 18:00:00,
2013-01-13 13:05:00,38.5,38.2,29.78,SW,225,4.6,4.6,99,0.00,CLR,,0.44,WeatherDisplay:10.37,2013-01-13 18:05:00,
2013-01-13 13:10:00,38.3,38.0,29.77,West,270,7.6,7.6,99,0.00,CLR,,0.44,WeatherDisplay:10.37,2013-01-13 18:10:00,
2013-01-13 13:15:00,37.9,37.7,29.78,South,180,8.1,8.1,99,0.00,CLR,,0.44,WeatherDisplay:10.37,2013-01-13 18:15:00,
2013-01-13 13:20:00,37.8,37.5,29.77,West,270,5.8,5.8,99,0.00,CLR,,0.44,WeatherDisplay:10.37,2013-01-13 18:20:00,
2013-01-13 13:25:00,37.8,37.5,29.77,NE,45,9.2,9.2,99,0.00,CLR,,0.44,WeatherDisplay:10.37,2013-01-13 18:25:00,
2013-01-13 13:30:00,37.6,37.3,29.77,West,270,10.4,10.4,99,0.00,CLR,,0.44,WeatherDisplay:10.37,2013-01-13 18:30:00,
2013-01-13 13:35:00,37.9,37.7,29.77,South,180,5.8,5.8,99,0.00,CLR,,0.44,WeatherDisplay:10.37,2013-01-13 18:35:00,
2013-01-13 13:40:00,38.3,38.0,29.76,South,180,4.6,4.6,99,0.00,CLR,,0.44,WeatherDisplay:10.37,2013-01-13 18:40:00,
2013-01-13 13:45:00,38.1,37.9,29.76,NW,315,4.6,4.6,99,0.00,CLR,,0.44,WeatherDisplay:10.37,2013-01-13 18:45:00,
2013-01-13 13:50:00,38.3,38.0,29.76,SW,225,5.8,5.8,99,0.00,CLR,,0.44,WeatherDisplay:10.37,2013-01-13 18:50:00,
2013-01-13 13:55:00,38.1,37.9,29.76,NW,315,6.9,6.9,99,0.00,CLR,,0.44,WeatherDisplay:10.37,2013-01-13 18:55:00,
2013-01-13 14:00:00,38.1,37.9,29.75,SW,225,5.8,5.8,99,0.00,CLR,,0.44,WeatherDisplay:10.37,2013-01-13 19:00:00,
2013-01-13 14:05:00,38.1,37.9,29.74,SW,225,5.8,5.8,99,0.00,CLR,,0.44,WeatherDisplay:10.37,2013-01-13 19:05:00,
2013-01-13 14:10:00,37.9,37.7,29.73,SW,225,4.6,4.6,99,0.00,CLR,,0.44,WeatherDisplay:10.37,2013-01-13 19:10:00,
2013-01-13 14:15:00,38.1,37.9,29.73,West,270,3.5,3.5,99,0.00,CLR,,0.44,WeatherDisplay:10.37,2013-01-13 19:15:00,
2013-01-13 14:20:00,37.9,37.7,29.73,NW,315,3.5,3.5,99,0.00,CLR,,0.44,WeatherDisplay:10.37,2013-01-13 19:20:00,
2013-01-13 14:25:00,37.8,37.5,29.73,NE,45,4.6,4.6,99,0.00,CLR,,0.44,WeatherDisplay:10.37,2013-01-13 19:25:00,
2013-01-13 14:30:00,37.8,37.5,29.73,North,0,4.6,4.6,99,0.00,CLR,,0.44,WeatherDisplay:10.37,2013-01-13 19:30:00,
2013-01-13 14:35:00,37.6,37.3,29.72,NW,315,6.9,6.9,99,0.00,CLR,,0.44,WeatherDisplay:10.37,2013-01-13 19:35:00,
2013-01-13 14:40:00,37.4,37.1,29.73,North,0,3.5,3.8,99,0.00,CLR,,0.44,WeatherDisplay:10.37,2013-01-13 19:40:00,
2013-01-13 14:45:00,37.2,37.0,29.74,North,0,4.6,4.6,99,0.00,CLR,,0.44,WeatherDisplay:10.37,2013-01-13 19:45:00,
2013-01-13 14:50:00,37.0,36.8,29.75,North,0,4.6,4.6,99,0.00,CLR,,0.44,WeatherDisplay:10.37,2013-01-13 19:50:00,
2013-01-13 14:55:00,36.9,36.6,29.76,NW,315,5.8,5.8,99,0.00,CLR,,0.44,WeatherDisplay:10.37,2013-01-13 19:55:00,
2013-01-13 15:00:00,36.9,36.6,29.77,NW,315,5.8,5.8,99,0.00,CLR,,0.44,WeatherDisplay:10.37,2013-01-13 20:00:00,
2013-01-13 15:05:00,36.9,36.6,29.78,NW,315,3.5,3.5,99,0.00,CLR,,0.44,WeatherDisplay:10.37,2013-01-13 20:05:00,
2013-01-13 15:10:00,36.7,36.4,29.78,NW,315,6.9,6.9,99,0.00,CLR,,0.44,WeatherDisplay:10.37,2013-01-13 20:10:00,
2013-01-13 15:15:00,36.7,36.4,29.79,West,270,5.8,5.8,99,0.00,CLR,,0.44,WeatherDisplay:10.37,2013-01-13 20:15:00,
2013-01-13 15:20:00,36.7,36.4,29.80,South,180,8.1,8.1,99,0.00,CLR,,0.44,WeatherDisplay:10.37,2013-01-13 20:20:00,
2013-01-13 15:25:00,36.5,36.2,29.80,NW,315,8.1,8.1,99,0.00,CLR,,0.44,WeatherDisplay:10.37,2013-01-13 20:25:00,
2013-01-13 15:30:00,36.5,36.2,29.80,NW,315,5.8,5.8,99,0.00,CLR,,0.44,WeatherDisplay:10.37,2013-01-13 20:30:00,
2013-01-13 15:35:00,36.5,36.2,29.81,SE,135,5.8,5.8,99,0.00,CLR,,0.44,WeatherDisplay:10.37,2013-01-13 20:35:00,
2013-01-13 15:40:00,36.3,36.1,29.80,NW,315,5.8,5.8,99,0.00,CLR,,0.44,WeatherDisplay:10.37,2013-01-13 20:40:00,
2013-01-13 15:45:00,36.3,36.1,29.81,NW,315,3.5,3.5,99,0.00,CLR,,0.44,WeatherDisplay:10.37,2013-01-13 20:45:00,
2013-01-13 15:50:00,36.3,36.1,29.81,West,270,3.5,3.5,99,0.00,CLR,,0.44,WeatherDisplay:10.37,2013-01-13 20:50:00,
2013-01-13 15:55:00,36.3,36.1,29.81,NW,315,3.5,3.5,99,0.00,CLR,,0.44,WeatherDisplay:10.37,2013-01-13 20:55:00,
2013-01-13 16:00:00,36.1,35.9,29.81,West,270,3.5,3.5,99,0.00,CLR,,0.44,WeatherDisplay:10.37,2013-01-13 21:00:00,
2013-01-13 16:05:00,36.1,35.9,29.81,West,270,3.5,3.5,99,0.00,CLR,,0.44,WeatherDisplay:10.37,2013-01-13 21:05:00,
2013-01-13 16:10:00,36.1,35.9,29.82,SW,225,8.1,8.1,99,0.00,CLR,,0.44,WeatherDisplay:10.37,2013-01-13 21:10:00,
2013-01-13 16:15:00,36.0,35.7,29.82,SW,225,3.5,3.5,99,0.00,CLR,,0.44,WeatherDisplay:10.37,2013-01-13 21:15:00,
2013-01-13 16:20:00,36.0,35.7,29.82,NW,315,2.3,0.0,99,0.01,RA,,0.45,WeatherDisplay:10.37,2013-01-13 21:20:00,
2013-01-13 16:25:00,36.0,35.7,29.83,SE,135,4.6,4.6,99,0.01,RA,,0.45,WeatherDisplay:10.37,2013-01-13 21:25:00,
2013-01-13 16:30:00,35.8,35.5,29.82,SE,135,6.9,6.9,99,0.01,RA,,0.45,WeatherDisplay:10.37,2013-01-13 21:30:00,
2013-01-13 16:36:00,35.6,35.3,29.82,SW,225,4.6,4.6,99,0.02,RA,,0.46,WeatherDisplay:10.37,2013-01-13 21:36:00,
2013-01-13 16:41:00,35.4,35.2,29.79,North,0,9.2,9.2,99,0.04,RA,,0.47,WeatherDisplay:10.37,2013-01-13 21:41:00,
2013-01-13 16:46:00,35.4,35.2,29.79,NW,315,1.2,0.0,99,0.05,RA,,0.48,WeatherDisplay:10.37,2013-01-13 21:46:00,
2013-01-13 16:51:00,35.4,35.2,29.78,NE,45,3.5,3.5,99,0.05,RA,,0.48,WeatherDisplay:10.37,2013-01-13 21:51:00,
2013-01-13 16:56:00,35.2,35.0,29.80,South,180,1.2,0.0,99,0.06,RA,,0.50,WeatherDisplay:10.37,2013-01-13 21:56:00,
2013-01-13 17:01:00,35.2,35.0,29.79,South,180,0.0,0.0,99,0.06,RA,,0.50,WeatherDisplay:10.37,2013-01-13 22:01:00,
2013-01-13 17:06:00,35.2,35.0,29.79,South,180,0.0,0.0,99,0.06,,,0.50,WeatherDisplay:10.37,2013-01-13 22:06:00,
2013-01-13 17:11:00,35.2,35.0,29.80,SW,225,0.0,0.0,99,0.07,RA,,0.51,WeatherDisplay:10.37,2013-01-13 22:11:00,
2013-01-13 17:16:00,35.2,35.0,29.78,North,0,2.3,2.3,99,0.07,RA,,0.51,WeatherDisplay:10.37,2013-01-13 22:16:00,
2013-01-13 17:21:00,35.2,35.0,29.79,South,180,0.0,0.0,99,0.07,RA,,0.52,WeatherDisplay:10.37,2013-01-13 22:21:00,
2013-01-13 17:26:00,35.2,35.0,29.79,SW,225,1.2,1.2,99,0.07,RA,,0.52,WeatherDisplay:10.37,2013-01-13 22:26:00,
2013-01-13 17:31:00,35.2,35.0,29.80,SW,225,3.5,3.5,99,0.08,RA,,0.53,WeatherDisplay:10.37,2013-01-13 22:31:00,
2013-01-13 17:36:00,35.4,35.2,29.81,SW,225,5.8,5.8,99,0.07,RA,,0.53,WeatherDisplay:10.37,2013-01-13 22:36:00,
2013-01-13 17:41:00,35.4,35.2,29.80,SW,225,4.6,4.6,99,0.07,RA,,0.54,WeatherDisplay:10.37,2013-01-13 22:41:00,
2013-01-13 17:46:00,35.4,35.2,29.80,West,270,5.8,5.8,99,0.06,RA,,0.54,WeatherDisplay:10.37,2013-01-13 22:46:00,
2013-01-13 17:51:00,35.4,35.2,29.80,South,180,5.8,5.8,99,0.06,CLR,,0.54,WeatherDisplay:10.37,2013-01-13 22:51:00,
2013-01-13 17:56:00,35.6,35.3,29.81,SW,225,5.8,5.8,99,0.05,CLR,,0.54,WeatherDisplay:10.37,2013-01-13 22:56:00,
2013-01-13 18:01:00,35.4,35.2,29.79,NW,315,5.8,5.8,99,0.05,CLR,,0.54,WeatherDisplay:10.37,2013-01-13 23:01:00,
2013-01-13 18:06:00,35.4,35.2,29.78,NW,315,5.8,5.8,99,0.05,CLR,,0.54,WeatherDisplay:10.37,2013-01-13 23:06:00,
2013-01-13 18:11:00,35.4,35.2,29.80,West,270,10.4,10.4,99,0.04,CLR,,0.54,WeatherDisplay:10.37,2013-01-13 23:11:00,
2013-01-13 18:16:00,35.2,35.0,29.79,SW,225,5.8,5.8,99,0.04,CLR,,0.54,WeatherDisplay:10.37,2013-01-13 23:16:00,
2013-01-13 18:21:00,35.1,34.8,29.80,South,180,5.8,5.8,99,0.02,CLR,,0.54,WeatherDisplay:10.37,2013-01-13 23:21:00,
2013-01-13 18:26:00,35.1,34.8,29.79,SW,225,4.6,4.6,99,0.02,CLR,,0.54,WeatherDisplay:10.37,2013-01-13 23:26:00,
2013-01-13 18:31:00,35.1,34.8,29.79,SW,225,3.5,3.5,99,0.02,RA,,0.56,WeatherDisplay:10.37,2013-01-13 23:31:00,
2013-01-13 18:36:00,35.1,34.8,29.80,SW,225,3.5,3.5,99,0.02,RA,,0.56,WeatherDisplay:10.37,2013-01-13 23:36:00,
2013-01-13 18:41:00,34.9,34.6,29.78,South,180,3.5,3.5,99,0.01,CLR,,0.56,WeatherDisplay:10.37,2013-01-13 23:41:00,
2013-01-13 18:46:00,34.9,34.6,29.79,SW,225,4.6,4.6,99,0.01,CLR,,0.56,WeatherDisplay:10.37,2013-01-13 23:46:00,
2013-01-13 18:51:00,34.7,34.4,29.79,SW,225,4.6,4.6,99,0.01,CLR,,0.56,WeatherDisplay:10.37,2013-01-13 23:51:00,
2013-01-13 18:56:00,34.7,34.4,29.80,West,270,8.1,8.1,99,0.01,CLR,,0.56,WeatherDisplay:10.37,2013-01-13 23:56:00,
2013-01-13 19:01:00,34.7,34.4,29.81,WSW,248,4.6,4.6,99,0.01,CLR,,0.56,WeatherDisplay:10.37,2013-01-14 00:01:00,
2013-01-13 19:06:00,34.7,34.4,29.81,WSW,248,4.6,4.6,99,0.01,CLR,,0.56,WeatherDisplay:10.37,2013-01-14 00:06:00,
2013-01-13 19:11:00,34.3,34.1,29.82,SW,225,9.2,9.2,99,0.01,CLR,,0.56,WeatherDisplay:10.37,2013-01-14 00:11:00,
2013-01-13 19:16:00,34.3,34.1,29.82,West,270,6.9,6.9,99,0.01,CLR,,0.56,WeatherDisplay:10.37,2013-01-14 00:16:00,
2013-01-13 19:21:00,34.2,33.9,29.82,WSW,248,10.4,10.4,99,0.01,CLR,,0.56,WeatherDisplay:10.37,2013-01-14 00:21:00,
2013-01-13 19:26:00,34.0,33.7,29.83,SW,225,9.2,9.2,99,0.01,CLR,,0.56,WeatherDisplay:10.37,2013-01-14 00:26:00,
2013-01-13 19:31:00,34.0,33.7,29.83,SW,225,6.9,6.9,99,0.00,CLR,,0.56,WeatherDisplay:10.37,2013-01-14 00:31:00,
2013-01-13 19:36:00,34.0,33.7,29.83,SW,225,5.8,5.8,99,0.00,CLR,,0.56,WeatherDisplay:10.37,2013-01-14 00:36:00,
2013-01-13 19:41:00,34.0,33.7,29.83,SW,225,5.8,5.8,99,0.00,CLR,,0.56,WeatherDisplay:10.37,2013-01-14 00:41:00,
2013-01-13 19:46:00,34.0,33.7,29.84,West,270,9.2,9.2,99,0.00,CLR,,0.56,WeatherDisplay:10.37,2013-01-14 00:46:00,
2013-01-13 19:51:00,34.0,33.7,29.83,SW,225,6.9,6.9,99,0.00,CLR,,0.56,WeatherDisplay:10.37,2013-01-14 00:51:00,
2013-01-13 19:56:00,33.8,33.5,29.83,South,180,8.1,8.1,99,0.00,CLR,,0.56,WeatherDisplay:10.37,2013-01-14 00:56:00,
2013-01-13 20:01:00,33.8,33.5,29.83,NW,315,5.8,5.8,99,0.00,CLR,,0.56,WeatherDisplay:10.37,2013-01-14 01:01:00,
2013-01-13 20:06:00,33.8,33.5,29.83,NW,315,5.8,5.8,99,0.00,CLR,,0.56,WeatherDisplay:10.37,2013-01-14 01:06:00,
2013-01-13 20:11:00,33.6,33.4,29.84,SSW,202,8.1,8.1,99,0.00,CLR,,0.56,WeatherDisplay:10.37,2013-01-14 01:11:00,
2013-01-13 20:16:00,33.4,33.2,29.84,SSW,202,12.7,12.7,99,0.00,CLR,,0.56,WeatherDisplay:10.37,2013-01-14 01:16:00,
2013-01-13 20:21:00,33.3,33.0,29.84,SW,225,8.1,8.1,99,0.00,CLR,,0.56,WeatherDisplay:10.37,2013-01-14 01:21:00,
2013-01-13 20:26:00,33.1,32.8,29.85,SW,225,9.2,9.2,99,0.00,CLR,,0.56,WeatherDisplay:10.37,2013-01-14 01:26:00,
2013-01-13 20:31:00,33.1,32.8,29.85,South,180,8.1,8.1,99,0.00,CLR,,0.56,WeatherDisplay:10.37,2013-01-14 01:31:00,
2013-01-13 20:36:00,32.9,32.7,29.85,South,180,10.4,10.4,99,0.00,CLR,,0.56,WeatherDisplay:10.37,2013-01-14 01:36:00,
2013-01-13 20:41:00,32.9,32.7,29.84,NW,315,8.1,8.1,99,0.00,CLR,,0.56,WeatherDisplay:10.37,2013-01-14 01:41:00,
2013-01-13 20:46:00,32.7,32.5,29.85,NW,315,11.5,11.5,99,0.00,CLR,,0.56,WeatherDisplay:10.37,2013-01-14 01:46:00,
2013-01-13 20:51:00,32.7,32.5,29.86,East,90,5.8,5.8,99,0.00,CLR,,0.56,WeatherDisplay:10.37,2013-01-14 01:51:00,
2013-01-13 20:56:00,32.7,32.5,29.85,South,180,9.2,9.2,99,0.00,CLR,,0.56,WeatherDisplay:10.37,2013-01-14 01:56:00,
2013-01-13 21:01:00,32.5,32.3,29.85,SW,225,8.1,8.1,99,0.00,CLR,,0.56,WeatherDisplay:10.37,2013-01-14 02:01:00,
2013-01-13 21:06:00,32.5,32.3,29.85,SW,225,8.1,8.1,99,0.00,CLR,,0.56,WeatherDisplay:10.37,2013-01-14 02:06:00,
2013-01-13 21:11:00,32.2,31.9,29.85,SW,225,10.4,10.4,99,0.00,CLR,,0.56,WeatherDisplay:10.37,2013-01-14 02:11:00,
2013-01-13 21:16:00,32.0,31.8,29.86,South,180,10.4,10.4,99,0.00,CLR,,0.56,WeatherDisplay:10.37,2013-01-14 02:16:00,
2013-01-13 21:21:00,32.0,31.8,29.87,WSW,248,8.1,8.1,99,0.00,CLR,,0.56,WeatherDisplay:10.37,2013-01-14 02:21:00,
2013-01-13 21:27:00,32.0,31.8,29.86,NW,315,8.1,8.1,99,0.00,CLR,,0.56,WeatherDisplay:10.37,2013-01-14 02:27:00,
2013-01-13 21:32:00,32.0,31.8,29.87,SW,225,6.9,6.9,99,0.00,CLR,,0.56,WeatherDisplay:10.37,2013-01-14 02:32:00,
2013-01-13 21:37:00,31.8,31.6,29.86,SW,225,10.4,10.4,99,0.00,CLR,,0.56,WeatherDisplay:10.37,2013-01-14 02:37:00,
2013-01-13 21:42:00,31.5,31.2,29.86,SW,225,15.0,15.0,99,0.00,CLR,,0.56,WeatherDisplay:10.37,2013-01-14 02:42:00,
2013-01-13 21:47:00,31.3,31.0,29.87,SSW,202,8.1,8.1,99,0.00,CLR,,0.56,WeatherDisplay:10.37,2013-01-14 02:47:00,
2013-01-13 21:52:00,31.1,30.9,29.87,SW,225,15.0,15.0,99,0.00,CLR,,0.56,WeatherDisplay:10.37,2013-01-14 02:52:00,
2013-01-13 21:57:00,30.9,30.7,29.87,SW,225,6.9,6.9,99,0.00,CLR,,0.56,WeatherDisplay:10.37,2013-01-14 02:57:00,
2013-01-13 22:02:00,30.9,30.7,29.88,South,180,5.8,5.8,99,0.00,CLR,,0.56,WeatherDisplay:10.37,2013-01-14 03:02:00,
2013-01-13 22:07:00,30.9,30.7,29.88,South,180,5.8,5.8,99,0.00,CLR,,0.56,WeatherDisplay:10.37,2013-01-14 03:07:00,
2013-01-13 22:12:00,30.4,30.1,29.88,SW,225,10.4,10.4,99,0.00,CLR,,0.56,WeatherDisplay:10.37,2013-01-14 03:12:00,
2013-01-13 22:17:00,30.2,30.0,29.88,South,180,11.5,11.5,99,0.00,CLR,,0.56,WeatherDisplay:10.37,2013-01-14 03:17:00,
2013-01-13 22:22:00,29.8,29.6,29.88,SW,225,10.4,10.4,99,0.00,CLR,,0.56,WeatherDisplay:10.37,2013-01-14 03:22:00,
2013-01-13 22:27:00,29.8,29.6,29.88,SW,225,8.1,8.1,99,0.00,CLR,,0.56,WeatherDisplay:10.37,2013-01-14 03:27:00,
2013-01-13 22:32:00,29.7,29.4,29.88,SW,225,12.7,12.7,99,0.00,CLR,,0.56,WeatherDisplay:10.37,2013-01-14 03:32:00,
2013-01-13 22:37:00,29.7,29.2,29.88,NW,315,8.1,8.1,98,0.00,CLR,,0.56,WeatherDisplay:10.37,2013-01-14 03:37:00,
2013-01-13 22:42:00,29.5,29.0,29.88,SW,225,10.4,10.4,98,0.00,CLR,,0.56,WeatherDisplay:10.37,2013-01-14 03:42:00,
2013-01-13 22:47:00,29.3,28.6,29.88,SW,225,10.4,10.4,97,0.00,CLR,,0.56,WeatherDisplay:10.37,2013-01-14 03:47:00,
2013-01-13 22:52:00,29.1,28.4,29.88,WNW,292,17.3,17.3,97,0.00,CLR,,0.56,WeatherDisplay:10.37,2013-01-14 03:52:00,
2013-01-13 22:57:00,29.1,28.1,29.89,North,0,10.4,10.4,96,0.00,CLR,,0.56,WeatherDisplay:10.37,2013-01-14 03:57:00,
2013-01-13 23:02:00,29.1,28.1,29.89,SW,225,13.8,13.8,96,0.00,CLR,,0.56,WeatherDisplay:10.37,2013-01-14 04:02:00,
2013-01-13 23:07:00,29.1,28.1,29.90,SW,225,13.8,13.8,96,0.00,CLR,,0.56,WeatherDisplay:10.37,2013-01-14 04:07:00,
2013-01-13 23:12:00,28.8,27.3,29.91,SSW,202,15.0,15.0,94,0.00,CLR,,0.56,WeatherDisplay:10.37,2013-01-14 04:12:00,
2013-01-13 23:17:00,28.6,27.1,29.91,SW,225,17.3,17.3,94,0.00,CLR,,0.56,WeatherDisplay:10.37,2013-01-14 04:17:00,
2013-01-13 23:22:00,28.4,26.6,29.91,SE,135,18.4,18.4,93,0.00,CLR,,0.56,WeatherDisplay:10.37,2013-01-14 04:22:00,
2013-01-13 23:27:00,28.4,26.6,29.91,SW,225,12.7,12.7,93,0.00,CLR,,0.56,WeatherDisplay:10.37,2013-01-14 04:27:00,
2013-01-13 23:32:00,28.2,26.2,29.91,WSW,248,15.0,15.0,92,0.00,CLR,,0.56,WeatherDisplay:10.37,2013-01-14 04:32:00,
2013-01-13 23:37:00,28.4,26.6,29.92,SW,225,16.1,16.1,93,0.00,CLR,,0.56,WeatherDisplay:10.37,2013-01-14 04:37:00,
2013-01-13 23:42:00,28.2,26.2,29.92,East,90,19.6,19.6,92,0.00,CLR,,0.56,WeatherDisplay:10.37,2013-01-14 04:42:00,
2013-01-13 23:47:00,28.0,26.0,29.92,East,90,25.3,25.3,92,0.00,CLR,,0.56,WeatherDisplay:10.37,2013-01-14 04:47:00,
2013-01-13 23:52:00,28.0,25.8,29.92,WSW,248,23.0,23.0,91,0.00,CLR,,0.56,WeatherDisplay:10.37,2013-01-14 04:52:00,
2013-01-13 23:57:00,28.0,25.8,29.92,East,90,13.8,13.8,91,0.00,CLR,,0.56,WeatherDisplay:10.37,2013-01-14 04:57:00,